createdAt,value
2019-05-12T00:01:52.827Z,8.88
2019-05-12T00:04:19.532Z,8.90
2019-05-12T00:06:47.863Z,8.93
2019-05-12T00:09:20.840Z,8.91
2019-05-12T00:11:48.427Z,8.89
2019-05-12T00:14:28.118Z,8.89
2019-05-12T00:17:01.006Z,8.87
2019-05-12T00:19:28.530Z,8.83
2019-05-12T00:22:02.771Z,8.83
2019-05-12T00:24:29.409Z,8.83
2019-05-12T00:29:51.068Z,8.77
2019-05-12T00:32:18.038Z,8.74
2019-05-12T00:34:52.233Z,8.74
2019-05-12T00:37:18.855Z,8.71
2019-05-12T00:39:47.762Z,8.67
2019-05-12T00:42:20.886Z,8.64
2019-05-12T00:44:47.885Z,8.64
2019-05-12T00:47:22.851Z,8.62
2019-05-12T00:49:50.370Z,8.58
2019-05-12T00:52:23.990Z,8.56
2019-05-12T00:54:50.609Z,8.53
2019-05-12T00:57:18.177Z,8.53
2019-05-12T00:59:51.956Z,8.49
2019-05-12T01:02:18.581Z,8.48
2019-05-12T01:04:45.227Z,8.48
2019-05-12T01:10:08.460Z,8.37
2019-05-12T01:12:44.900Z,8.34
2019-05-12T01:15:11.540Z,8.32
2019-05-12T01:17:40.382Z,8.35
2019-05-12T01:20:12.806Z,8.29
2019-05-12T01:22:39.433Z,8.27
2019-05-12T01:25:08.337Z,8.27
2019-05-12T01:27:41.344Z,8.27
2019-05-12T01:30:20.525Z,8.25
2019-05-12T01:32:48.369Z,8.24
2019-05-12T01:35:21.905Z,8.19
2019-05-12T01:37:48.530Z,8.17
2019-05-12T01:40:15.143Z,8.19
2019-05-12T01:42:41.969Z,8.20
2019-05-12T01:45:09.209Z,8.14
2019-05-12T01:47:48.574Z,8.12
2019-05-12T01:50:21.865Z,8.07
2019-05-12T01:52:48.475Z,8.05
2019-05-12T01:55:15.134Z,8.04
2019-05-12T01:57:41.830Z,8.02
2019-05-12T02:00:09.253Z,7.98
2019-05-12T02:02:35.892Z,7.95
2019-05-12T02:05:22.416Z,7.92
2019-05-12T02:08:09.710Z,7.90
2019-05-12T02:10:38.758Z,7.90
2019-05-12T02:13:11.677Z,7.90
2019-05-12T02:15:38.576Z,7.85
2019-05-12T02:18:17.835Z,7.86
2019-05-12T02:20:51.520Z,7.81
2019-05-12T02:23:18.146Z,7.79
2019-05-12T02:25:44.890Z,7.78
2019-05-12T02:28:11.579Z,7.81
2019-05-12T02:30:41.382Z,7.79
2019-05-12T02:33:15.810Z,7.80
2019-05-12T02:35:47.868Z,7.84
2019-05-12T02:38:14.720Z,7.79
2019-05-12T02:40:44.686Z,7.78
2019-05-12T02:43:16.885Z,7.80
2019-05-12T02:45:44.698Z,7.78
2019-05-12T02:48:24.547Z,7.77
2019-05-12T02:50:56.890Z,7.79
2019-05-12T02:53:24.874Z,7.78
2019-05-12T02:56:04.770Z,7.75
2019-05-12T02:58:36.921Z,7.75
2019-05-12T03:01:05.502Z,7.75
2019-05-12T03:03:44.118Z,7.74
2019-05-12T03:06:20.124Z,7.75
2019-05-12T03:08:46.749Z,7.80
2019-05-12T03:11:14.775Z,7.83
2019-05-12T03:13:48.185Z,7.86
2019-05-12T03:16:15.205Z,7.84
2019-05-12T03:18:55.276Z,7.87
2019-05-12T03:21:28.306Z,7.85
2019-05-12T03:23:55.293Z,7.87
2019-05-12T03:26:34.701Z,7.89
2019-05-12T03:29:08.257Z,7.90
2019-05-12T03:31:39.876Z,7.91
2019-05-12T03:34:11.394Z,7.97
2019-05-12T03:36:50.633Z,7.97
2019-05-12T03:39:20.066Z,8.00
2019-05-12T03:41:46.681Z,8.00
2019-05-12T03:44:15.002Z,8.00
2019-05-12T03:46:48.082Z,8.01
2019-05-12T03:49:15.585Z,8.01
2019-05-12T03:51:49.908Z,7.99
2019-05-12T03:54:16.620Z,8.02
2019-05-12T03:56:45.030Z,8.04
2019-05-12T03:59:17.896Z,8.04
2019-05-12T04:01:45.308Z,8.03
2019-05-12T04:04:19.719Z,8.03
2019-05-12T04:06:46.406Z,8.07
2019-05-12T04:09:15.492Z,8.06
2019-05-12T04:11:48.035Z,8.08
2019-05-12T04:14:15.149Z,8.06
2019-05-12T04:16:49.394Z,8.09
2019-05-12T04:19:16.009Z,8.11
2019-05-12T04:21:44.638Z,8.10
2019-05-12T04:24:17.770Z,8.12
2019-05-12T04:26:45.089Z,8.08
2019-05-12T04:29:19.761Z,8.04
2019-05-12T04:31:46.365Z,8.21
2019-05-12T04:34:15.658Z,8.42
2019-05-12T04:36:47.624Z,8.32
2019-05-12T04:39:14.882Z,8.51
2019-05-12T04:45:10.720Z,8.86
2019-05-12T04:47:37.317Z,8.95
2019-05-12T04:50:05.412Z,9.02
2019-05-12T04:52:38.718Z,9.00
2019-05-12T04:55:05.364Z,8.74
2019-05-12T04:57:34.624Z,8.65
2019-05-12T05:00:06.769Z,8.77
2019-05-12T05:02:36.372Z,8.93
2019-05-12T05:05:14.542Z,8.85
2019-05-12T05:07:46.852Z,8.63
2019-05-12T05:10:14.555Z,8.50
2019-05-12T05:12:54.236Z,8.40
2019-05-12T05:15:27.039Z,8.38
2019-05-12T05:17:54.476Z,8.29
2019-05-12T05:20:34.247Z,8.16
2019-05-12T05:23:10.114Z,8.14
2019-05-12T05:25:36.858Z,8.21
2019-05-12T05:28:03.991Z,8.20
2019-05-12T05:30:43.671Z,8.23
2019-05-12T05:33:19.793Z,8.14
2019-05-12T05:35:54.922Z,8.00
2019-05-12T05:38:23.576Z,7.96
2019-05-12T05:40:59.675Z,7.88
2019-05-12T05:43:33.216Z,7.79
2019-05-12T05:46:08.059Z,7.69
2019-05-12T05:48:40.383Z,7.58
2019-05-12T05:51:09.041Z,7.43
2019-05-12T05:53:49.886Z,7.43
2019-05-12T05:56:20.334Z,7.42
2019-05-12T05:58:51.634Z,7.40
2019-05-12T06:01:25.161Z,7.39
2019-05-12T06:03:53.243Z,7.35
2019-05-12T06:06:26.905Z,7.31
2019-05-12T06:09:14.121Z,7.33
2019-05-12T06:11:40.898Z,7.31
2019-05-12T06:14:11.320Z,7.26
2019-05-12T06:19:44.883Z,7.30
2019-05-12T06:22:15.083Z,7.23
2019-05-12T06:27:51.162Z,7.20
2019-05-12T06:30:24.290Z,7.22
2019-05-12T06:32:58.154Z,7.18
2019-05-12T06:35:24.857Z,7.20
2019-05-12T06:38:00.095Z,7.09
2019-05-12T06:40:45.708Z,7.10
2019-05-12T06:43:13.944Z,7.08
2019-05-12T06:45:47.020Z,7.09
2019-05-12T06:48:14.174Z,7.10
2019-05-12T06:50:48.929Z,7.11
2019-05-12T06:53:20.217Z,7.05
2019-05-12T06:55:54.124Z,7.00
2019-05-12T06:58:32.112Z,6.97
2019-05-12T07:01:10.178Z,6.91
2019-05-12T07:03:38.778Z,6.95
2019-05-12T07:06:09.090Z,6.97
2019-05-12T07:08:43.998Z,6.88
2019-05-12T07:11:10.702Z,6.92
2019-05-12T07:13:37.310Z,6.91
2019-05-12T07:16:29.766Z,6.87
2019-05-12T07:18:58.668Z,6.81
2019-05-12T07:21:27.270Z,6.85
2019-05-12T07:24:00.355Z,6.89
2019-05-12T07:26:34.842Z,6.84
2019-05-12T07:29:01.490Z,6.82
2019-05-12T07:34:07.814Z,6.84
2019-05-12T07:36:41.569Z,6.86
2019-05-12T07:39:08.649Z,6.84
2019-05-12T07:41:50.795Z,6.85
2019-05-12T07:44:24.972Z,6.87
2019-05-12T07:46:56.874Z,6.86
2019-05-12T07:49:34.462Z,6.81
2019-05-12T07:51:58.069Z,6.81
2019-05-12T07:54:29.317Z,6.83
2019-05-12T07:57:11.471Z,6.86
2019-05-12T07:59:43.670Z,6.97
2019-05-12T08:02:16.512Z,6.95
2019-05-12T08:04:44.029Z,6.95
2019-05-12T08:07:19.932Z,6.93
2019-05-12T08:09:53.708Z,6.98
2019-05-12T08:12:28.545Z,6.99
2019-05-12T08:14:59.325Z,6.99
2019-05-12T08:17:33.732Z,6.95
2019-05-12T08:20:00.514Z,6.94
2019-05-12T08:22:29.350Z,7.01
2019-05-12T08:25:04.039Z,6.93
2019-05-12T08:27:39.146Z,6.89
2019-05-12T08:30:13.894Z,6.84
2019-05-12T08:32:46.970Z,6.84
2019-05-12T08:35:14.053Z,6.77
2019-05-12T08:37:54.329Z,6.82
2019-05-12T08:40:27.151Z,6.80
2019-05-12T08:42:54.036Z,6.77
2019-05-12T08:45:25.702Z,6.76
2019-05-12T08:47:49.329Z,6.75
2019-05-12T08:50:15.971Z,6.74
2019-05-12T08:52:44.297Z,6.73
2019-05-12T08:55:13.814Z,6.72
2019-05-12T08:57:46.492Z,6.73
2019-05-12T09:00:08.858Z,6.72
2019-05-12T09:02:39.947Z,6.74
2019-05-12T09:05:04.764Z,6.74
2019-05-12T09:07:35.904Z,6.74
2019-05-12T09:10:00.279Z,6.71
2019-05-12T09:12:26.933Z,6.76
2019-05-12T09:14:54.574Z,6.77
2019-05-12T09:17:23.283Z,6.88
2019-05-12T09:19:54.966Z,7.01
2019-05-12T09:22:20.965Z,6.99
2019-05-12T09:24:47.014Z,7.06
2019-05-12T09:27:13.681Z,7.03
2019-05-12T09:29:40.396Z,7.02
2019-05-12T09:32:09.452Z,6.84
2019-05-12T09:34:35.666Z,6.84
2019-05-12T09:37:04.062Z,6.83
2019-05-12T09:39:34.064Z,6.90
2019-05-12T09:41:59.406Z,7.02
2019-05-12T09:44:30.284Z,7.05
2019-05-12T09:46:54.585Z,7.03
2019-05-12T09:49:22.778Z,6.97
2019-05-12T09:51:49.776Z,7.04
2019-05-12T09:54:16.419Z,7.07
2019-05-12T09:56:44.180Z,7.08
2019-05-12T09:59:19.067Z,7.16
2019-05-12T10:01:40.658Z,7.16
2019-05-12T10:04:10.344Z,7.20
2019-05-12T10:06:36.749Z,7.24
2019-05-12T10:09:08.910Z,7.22
2019-05-12T10:11:33.779Z,7.25
2019-05-12T10:14:05.685Z,7.27
2019-05-12T10:16:28.947Z,7.19
2019-05-12T10:18:55.698Z,7.24
2019-05-12T10:21:23.767Z,7.32
2019-05-12T10:23:51.524Z,7.33
2019-05-12T10:26:19.188Z,7.32
2019-05-12T10:28:51.950Z,7.38
2019-05-12T10:31:14.497Z,7.42
2019-05-12T10:33:43.147Z,7.40
2019-05-12T10:36:09.728Z,7.43
2019-05-12T10:38:36.373Z,7.45
2019-05-12T10:41:04.270Z,7.47
2019-05-12T10:43:31.247Z,7.39
2019-05-12T10:45:57.878Z,7.28
2019-05-12T10:48:24.620Z,7.27
2019-05-12T10:50:53.426Z,7.23
2019-05-12T10:53:19.910Z,7.26
2019-05-12T10:55:46.531Z,7.26
2019-05-12T10:58:14.516Z,7.31
2019-05-12T11:00:41.523Z,7.27
2019-05-12T11:03:12.123Z,7.31
2019-05-12T11:05:36.797Z,7.31
2019-05-12T11:08:11.003Z,7.29
2019-05-12T11:10:31.963Z,7.41
2019-05-12T11:12:59.222Z,7.46
2019-05-12T11:15:27.165Z,7.46
2019-05-12T11:18:11.431Z,7.38
2019-05-12T11:20:38.112Z,7.39
2019-05-12T11:23:04.818Z,7.33
2019-05-12T11:25:33.741Z,7.33
2019-05-12T11:27:59.981Z,7.37
2019-05-12T11:30:26.719Z,7.40
2019-05-12T11:32:54.208Z,7.45
2019-05-12T11:35:21.038Z,7.41
2019-05-12T11:37:47.799Z,7.48
2019-05-12T11:40:14.547Z,7.47
2019-05-12T11:42:46.836Z,7.39
2019-05-12T11:45:09.800Z,7.41
2019-05-12T11:47:37.355Z,7.31
2019-05-12T11:50:09.528Z,7.38
2019-05-12T11:52:33.392Z,7.44
2019-05-12T11:55:00.216Z,7.48
2019-05-12T11:57:30.296Z,7.56
2019-05-12T12:00:02.069Z,7.59
2019-05-12T12:02:26.371Z,7.69
2019-05-12T12:04:54.362Z,7.70
2019-05-12T12:07:21.262Z,7.77
2019-05-12T12:09:49.381Z,7.77
2019-05-12T12:12:16.566Z,7.75
2019-05-12T12:14:46.247Z,7.76
2019-05-12T12:17:13.552Z,7.83
2019-05-12T12:19:44.601Z,7.91
2019-05-12T12:22:08.870Z,7.87
2019-05-12T12:24:38.203Z,8.03
2019-05-12T12:27:04.042Z,8.07
2019-05-12T12:29:30.766Z,8.14
2019-05-12T12:32:00.502Z,8.09
2019-05-12T12:34:30.093Z,8.02
2019-05-12T12:36:55.774Z,8.00
2019-05-12T12:39:23.792Z,8.02
2019-05-12T12:41:58.370Z,7.87
2019-05-12T12:44:19.206Z,7.81
2019-05-12T12:46:45.884Z,7.90
2019-05-12T12:49:13.951Z,7.90
2019-05-12T12:51:40.762Z,7.96
2019-05-12T12:54:07.408Z,7.96
2019-05-12T12:56:34.179Z,8.00
2019-05-12T12:59:01.873Z,8.03
2019-05-12T13:01:32.675Z,8.05
2019-05-12T13:03:59.392Z,8.00
2019-05-12T13:06:28.533Z,7.94
2019-05-12T13:08:55.244Z,7.99
2019-05-12T13:11:32.869Z,7.98
2019-05-12T13:13:50.684Z,7.97
2019-05-12T13:16:17.430Z,8.03
2019-05-12T13:18:44.153Z,8.00
2019-05-12T13:21:10.797Z,8.06
2019-05-12T13:23:40.935Z,8.07
2019-05-12T13:26:06.030Z,8.07
2019-05-12T13:28:34.285Z,8.09
2019-05-12T13:31:09.149Z,8.13
2019-05-12T13:33:29.648Z,8.06
2019-05-12T13:35:57.559Z,7.98
2019-05-12T13:38:24.386Z,7.92
2019-05-12T13:40:51.067Z,7.76
2019-05-12T13:43:19.694Z,7.71
2019-05-12T13:45:46.374Z,7.76
2019-05-12T13:48:15.800Z,7.75
2019-05-12T13:50:43.297Z,7.76
2019-05-12T13:53:10.428Z,7.75
2019-05-12T13:55:39.336Z,7.73
2019-05-12T13:58:05.753Z,7.70
2019-05-12T14:00:33.602Z,7.71
2019-05-12T14:03:07.142Z,7.73
2019-05-12T14:05:29.018Z,7.68
2019-05-12T14:07:57.349Z,7.63
2019-05-12T14:10:24.991Z,7.50
2019-05-12T14:12:53.906Z,7.59
2019-05-12T14:15:20.154Z,7.63
2019-05-12T14:17:46.802Z,7.67
2019-05-12T14:20:15.952Z,7.73
2019-05-12T14:22:44.555Z,7.75
2019-05-12T14:25:10.621Z,7.78
2019-05-12T14:27:37.371Z,7.81
2019-05-12T14:30:09.872Z,7.83
2019-05-12T14:32:33.605Z,7.84
2019-05-12T14:35:00.807Z,7.79
2019-05-12T14:37:27.766Z,7.81
2019-05-12T14:39:54.400Z,7.84
2019-05-12T14:42:26.020Z,7.87
2019-05-12T14:44:55.814Z,7.83
2019-05-12T14:47:28.318Z,7.94
2019-05-12T14:50:03.788Z,8.14
2019-05-12T14:52:35.784Z,8.28
2019-05-12T14:55:03.420Z,8.35
2019-05-12T14:57:40.854Z,8.32
2019-05-12T15:00:11.282Z,8.36
2019-05-12T15:02:43.708Z,8.35
2019-05-12T15:05:17.866Z,8.37
2019-05-12T15:07:51.275Z,8.28
2019-05-12T15:10:23.469Z,8.26
2019-05-12T15:12:56.762Z,8.15
2019-05-12T15:15:24.295Z,8.07
2019-05-12T15:18:03.084Z,8.03
2019-05-12T15:20:33.736Z,8.00
2019-05-12T15:23:00.439Z,7.97
2019-05-12T15:25:46.560Z,8.04
2019-05-12T15:28:14.531Z,8.02
2019-05-12T15:30:48.403Z,8.02
2019-05-12T15:33:15.015Z,8.03
2019-05-12T15:35:43.846Z,7.97
2019-05-12T15:38:20.078Z,7.96
2019-05-12T15:40:46.810Z,7.93
2019-05-12T15:45:55.409Z,7.99
2019-05-12T15:48:28.046Z,8.26
2019-05-12T15:50:59.525Z,8.23
2019-05-12T15:53:29.606Z,8.16
2019-05-12T15:55:56.335Z,8.09
2019-05-12T15:58:24.777Z,7.98
2019-05-12T16:01:01.335Z,7.88
2019-05-12T16:03:28.029Z,7.83
2019-05-12T16:05:54.755Z,7.79
2019-05-12T16:08:21.432Z,7.76
2019-05-12T16:10:48.154Z,7.72
2019-05-12T16:13:15.844Z,7.66
2019-05-12T16:15:57.616Z,7.67
2019-05-12T16:18:26.662Z,7.68
2019-05-12T16:21:05.155Z,7.64
2019-05-12T16:23:34.657Z,7.62
2019-05-12T16:26:06.634Z,7.57
2019-05-12T16:28:40.314Z,7.57
2019-05-12T16:31:08.651Z,7.55
2019-05-12T16:33:45.415Z,7.56
2019-05-12T16:36:14.429Z,7.59
2019-05-12T16:38:50.084Z,7.58
2019-05-12T16:41:26.236Z,7.55
2019-05-12T16:43:57.036Z,7.54
2019-05-12T16:46:23.652Z,7.58
2019-05-12T16:48:54.517Z,7.59
2019-05-12T16:51:25.444Z,7.60
2019-05-12T16:53:53.897Z,7.56
2019-05-12T16:56:29.726Z,7.55
2019-05-12T16:59:07.256Z,7.53
2019-05-12T17:01:37.410Z,7.50
2019-05-12T17:04:04.432Z,7.48
2019-05-12T17:06:35.153Z,7.55
2019-05-12T17:09:09.465Z,7.77
2019-05-12T17:11:37.452Z,8.04
2019-05-12T17:14:10.672Z,8.08
2019-05-12T17:16:41.706Z,8.17
2019-05-12T17:19:15.777Z,8.26
2019-05-12T17:21:44.138Z,8.31
2019-05-12T17:24:23.728Z,8.32
2019-05-12T17:26:55.837Z,8.29
2019-05-12T17:29:24.205Z,8.15
2019-05-12T17:32:03.963Z,8.06
2019-05-12T17:34:40.283Z,8.12
2019-05-12T17:37:11.145Z,8.17
2019-05-12T17:39:39.202Z,8.14
2019-05-12T17:42:21.191Z,8.07
2019-05-12T17:44:47.923Z,7.91
2019-05-12T17:47:21.384Z,7.84
2019-05-12T17:49:49.671Z,7.77
2019-05-12T17:52:18.560Z,7.66
2019-05-12T17:54:57.949Z,7.58
2019-05-12T17:57:29.573Z,7.56
2019-05-12T17:59:59.894Z,7.53
2019-05-12T18:02:31.412Z,7.47
2019-05-12T18:05:01.122Z,7.46
2019-05-12T18:07:34.257Z,7.52
2019-05-12T18:10:08.289Z,7.55
2019-05-12T18:12:41.619Z,7.59
2019-05-12T18:15:15.063Z,7.55
2019-05-12T18:17:50.009Z,7.55
2019-05-12T18:20:31.255Z,7.53
2019-05-12T18:23:04.375Z,7.50
2019-05-12T18:25:37.267Z,7.42
2019-05-12T18:28:03.936Z,7.40
2019-05-12T18:30:30.659Z,7.38
2019-05-12T18:33:04.286Z,7.38
2019-05-12T18:35:31.784Z,7.38
2019-05-12T18:37:58.529Z,7.38
2019-05-12T18:40:28.031Z,7.38
2019-05-12T18:43:00.576Z,7.36
2019-05-12T18:45:27.230Z,7.38
2019-05-12T18:47:54.014Z,7.40
2019-05-12T18:50:26.318Z,7.41
2019-05-12T18:55:55.270Z,7.37
2019-05-12T18:58:30.361Z,7.36
2019-05-12T19:00:56.821Z,7.35
2019-05-12T19:03:25.377Z,7.32
2019-05-12T19:05:58.662Z,7.34
2019-05-12T19:08:25.299Z,7.33
2019-05-12T19:10:52.014Z,7.31
2019-05-12T19:13:18.765Z,7.27
2019-05-12T19:15:45.493Z,7.27
2019-05-12T19:18:17.888Z,7.29
2019-05-12T19:20:48.220Z,7.29
2019-05-12T19:23:26.891Z,7.29
2019-05-12T19:25:57.554Z,7.29
2019-05-12T19:28:24.288Z,7.32
2019-05-12T19:30:50.919Z,7.31
2019-05-12T19:33:17.620Z,7.31
2019-05-12T19:35:44.248Z,7.31
2019-05-12T19:38:13.371Z,7.33
2019-05-12T19:40:54.319Z,7.33
2019-05-12T19:43:20.260Z,7.29
2019-05-12T19:45:46.922Z,7.25
2019-05-12T19:48:24.038Z,7.19
2019-05-12T19:50:56.559Z,7.17
2019-05-12T19:53:26.970Z,7.15
2019-05-12T19:55:53.709Z,7.15
2019-05-12T19:58:20.311Z,7.13
2019-05-12T20:00:47.022Z,7.13
2019-05-12T20:03:14.053Z,7.13
2019-05-12T20:05:53.855Z,7.11
2019-05-12T20:08:27.117Z,7.10
2019-05-12T20:10:54.196Z,7.10
2019-05-12T20:13:29.666Z,7.11
2019-05-12T20:16:03.930Z,7.14
2019-05-12T20:18:34.343Z,7.18
2019-05-12T20:21:05.662Z,7.22
2019-05-12T20:23:33.443Z,7.26
2019-05-12T20:26:07.616Z,7.27
2019-05-12T20:28:34.700Z,7.28
2019-05-12T20:31:09.485Z,7.27
2019-05-12T20:33:36.259Z,7.28
2019-05-12T20:36:04.111Z,7.27
2019-05-12T20:38:44.207Z,7.26
2019-05-12T20:41:23.840Z,7.25
2019-05-12T20:43:55.309Z,7.26
2019-05-12T20:46:25.851Z,7.16
2019-05-12T20:49:01.282Z,7.14
2019-05-12T20:51:35.207Z,7.07
2019-05-12T20:54:05.512Z,7.02
2019-05-12T20:56:37.022Z,7.00
2019-05-12T20:59:03.831Z,6.93
2019-05-12T21:01:30.564Z,6.89
2019-05-12T21:03:57.207Z,6.84
2019-05-12T21:06:23.859Z,6.85
2019-05-12T21:08:53.453Z,6.83
2019-05-12T21:11:25.345Z,6.84
2019-05-12T21:13:54.404Z,6.84
2019-05-12T21:16:34.632Z,6.85
2019-05-12T21:19:09.964Z,6.86
2019-05-12T21:21:38.658Z,6.90
2019-05-12T21:24:15.363Z,6.92
2019-05-12T21:26:43.890Z,6.95
2019-05-12T21:29:19.075Z,6.99
2019-05-12T21:31:53.173Z,6.99
2019-05-12T21:34:29.845Z,7.03
2019-05-12T21:36:59.098Z,7.06
2019-05-12T21:39:33.445Z,7.09
2019-05-12T21:42:06.433Z,7.09
2019-05-12T21:44:33.089Z,7.11
2019-05-12T21:47:07.743Z,7.11
2019-05-12T21:49:34.478Z,7.11
2019-05-12T21:52:05.848Z,7.10
2019-05-12T21:54:39.934Z,7.11
2019-05-12T21:57:19.033Z,7.13
2019-05-12T21:59:49.594Z,7.14
2019-05-12T22:05:13.923Z,7.09
2019-05-12T22:07:45.970Z,7.06
2019-05-12T22:10:15.323Z,7.06
2019-05-12T22:12:47.941Z,7.05
2019-05-12T22:15:21.048Z,7.06
2019-05-12T22:18:13.721Z,7.05
2019-05-12T22:20:40.415Z,7.05
2019-05-12T22:23:11.518Z,7.01
2019-05-12T22:25:49.068Z,6.95
2019-05-12T22:28:20.237Z,6.90
2019-05-12T22:30:46.855Z,6.92
2019-05-12T22:33:13.938Z,6.95
2019-05-12T22:36:01.878Z,7.00
2019-05-12T22:38:24.780Z,7.05
2019-05-12T22:40:59.747Z,7.05
2019-05-12T22:43:40.728Z,7.06
2019-05-12T22:46:08.342Z,7.05
2019-05-12T22:48:38.278Z,7.07
2019-05-12T22:51:21.128Z,7.06
2019-05-12T22:53:48.185Z,7.08
2019-05-12T22:56:18.012Z,7.08
2019-05-12T22:58:51.990Z,7.10
2019-05-12T23:01:34.621Z,7.12
2019-05-12T23:04:03.844Z,7.10
2019-05-12T23:06:42.316Z,7.06
2019-05-12T23:09:12.363Z,7.06
2019-05-12T23:11:46.326Z,7.09
2019-05-12T23:14:20.998Z,7.09
2019-05-12T23:16:48.104Z,7.08
2019-05-12T23:19:15.080Z,7.07
2019-05-12T23:24:39.194Z,7.08
2019-05-12T23:27:08.925Z,7.10
2019-05-12T23:29:44.372Z,7.09
2019-05-12T23:32:17.372Z,7.08
2019-05-12T23:34:45.078Z,7.05
2019-05-12T23:37:19.086Z,7.06
2019-05-12T23:39:45.696Z,7.06
2019-05-12T23:42:13.588Z,7.04
2019-05-12T23:44:50.710Z,7.05
2019-05-12T23:47:17.323Z,7.05
2019-05-12T23:49:44.482Z,7.06
2019-05-12T23:52:18.392Z,7.06
2019-05-12T23:54:44.988Z,6.99
2019-05-12T23:57:13.623Z,6.97
2019-05-12T23:59:46.100Z,6.94
